createdAt,value
2023-03-15T00:01:08.251Z,6.50
2023-03-15T00:03:37.773Z,2.23
2023-03-15T00:06:06.527Z,4.70
2023-03-15T00:08:36.300Z,3.13
2023-03-15T00:11:05.270Z,2.03
2023-03-15T00:13:33.701Z,2.33
2023-03-15T00:16:04.250Z,6.23
2023-03-15T00:18:33.488Z,4.00
2023-03-15T00:21:01.817Z,4.07
2023-03-15T00:23:31.632Z,2.27
2023-03-15T00:26:01.601Z,2.73
2023-03-15T00:28:29.885Z,3.87
2023-03-15T00:31:06.155Z,2.27
2023-03-15T00:33:35.995Z,5.00
2023-03-15T00:36:08.062Z,3.20
2023-03-15T00:38:36.625Z,5.10
2023-03-15T00:41:11.150Z,5.23
2023-03-15T00:43:39.477Z,7.60
2023-03-15T00:46:08.630Z,3.17
2023-03-15T00:48:37.164Z,2.40
2023-03-15T00:51:07.498Z,5.30
2023-03-15T00:53:36.072Z,3.90
2023-03-15T00:56:11.420Z,1.97
2023-03-15T00:58:40.142Z,3.23
2023-03-15T01:01:10.516Z,2.27
2023-03-15T01:03:38.846Z,4.00
2023-03-15T01:06:08.957Z,2.97
2023-03-15T01:08:37.364Z,4.50
2023-03-15T01:11:07.118Z,4.13
2023-03-15T01:13:37.029Z,8.70
2023-03-15T01:16:06.247Z,2.20
2023-03-15T01:18:34.952Z,4.50
2023-03-15T01:21:03.323Z,3.30
2023-03-15T01:23:31.756Z,4.37
2023-03-15T01:26:01.919Z,5.00
2023-03-15T01:28:30.723Z,12.07
2023-03-15T01:31:00.900Z,2.30
2023-03-15T01:33:29.470Z,5.40
2023-03-15T01:36:02.074Z,2.47
2023-03-15T01:38:30.789Z,8.03
2023-03-15T01:40:59.618Z,3.80
2023-03-15T01:43:29.483Z,2.23
2023-03-15T01:46:35.060Z,4.60
2023-03-15T01:49:08.409Z,3.60
2023-03-15T01:51:40.110Z,2.30
2023-03-15T01:54:14.619Z,4.70
2023-03-15T01:56:48.031Z,2.47
2023-03-15T01:59:21.888Z,5.37
2023-03-15T02:01:50.521Z,5.17
2023-03-15T02:04:26.740Z,4.30
2023-03-15T02:06:59.669Z,4.00
2023-03-15T02:09:36.976Z,2.10
2023-03-15T02:12:06.561Z,5.80
2023-03-15T02:14:35.695Z,2.53
2023-03-15T02:17:04.547Z,3.43
2023-03-15T02:19:44.133Z,6.93
2023-03-15T02:22:24.460Z,4.87
2023-03-15T02:25:01.381Z,3.63
2023-03-15T02:27:34.578Z,4.53
2023-03-15T02:30:04.222Z,6.13
2023-03-15T02:32:33.098Z,4.23
2023-03-15T02:35:01.629Z,5.50
2023-03-15T02:37:29.945Z,2.10
2023-03-15T02:39:58.313Z,3.30
2023-03-15T02:42:27.249Z,3.03
2023-03-15T02:44:58.992Z,3.13
2023-03-15T02:47:33.467Z,4.43
2023-03-15T02:50:01.907Z,5.60
2023-03-15T02:52:30.139Z,2.70
2023-03-15T02:54:58.514Z,5.33
2023-03-15T02:57:26.690Z,2.00
2023-03-15T02:59:57.104Z,2.97
2023-03-15T03:02:25.735Z,2.73
2023-03-15T03:04:54.126Z,3.67
2023-03-15T03:07:22.379Z,3.90
2023-03-15T03:09:50.819Z,2.57
2023-03-15T03:12:19.186Z,2.57
2023-03-15T03:14:47.470Z,2.23
2023-03-15T03:17:17.393Z,2.30
2023-03-15T03:19:45.854Z,2.10
2023-03-15T03:22:14.537Z,3.37
2023-03-15T03:24:46.259Z,2.00
2023-03-15T03:27:16.304Z,2.10
2023-03-15T03:29:44.662Z,2.83
2023-03-15T03:32:14.903Z,2.70
2023-03-15T03:34:48.831Z,4.63
2023-03-15T03:37:18.804Z,6.43
2023-03-15T03:39:47.320Z,5.07
2023-03-15T03:42:16.147Z,12.63
2023-03-15T03:44:44.570Z,2.70
2023-03-15T03:47:13.060Z,7.50
2023-03-15T03:49:41.320Z,5.03
2023-03-15T03:52:11.675Z,2.80
2023-03-15T03:54:40.113Z,4.20
2023-03-15T03:57:08.773Z,2.77
2023-03-15T03:59:37.031Z,5.30
2023-03-15T04:02:05.979Z,8.50
2023-03-15T04:04:34.294Z,2.30
2023-03-15T04:07:02.507Z,2.10
2023-03-15T04:09:32.522Z,2.20
2023-03-15T04:12:00.844Z,2.40
2023-03-15T04:14:29.743Z,2.57
2023-03-15T04:16:57.972Z,2.50
2023-03-15T04:19:27.151Z,7.93
2023-03-15T04:21:55.348Z,4.20
2023-03-15T04:24:23.809Z,2.17
2023-03-15T04:26:58.054Z,4.40
2023-03-15T04:29:26.523Z,3.83
2023-03-15T04:32:01.993Z,2.13
2023-03-15T04:34:30.835Z,2.23
2023-03-15T04:36:59.177Z,10.37
2023-03-15T04:39:27.476Z,2.50
2023-03-15T04:41:57.181Z,3.00
2023-03-15T04:44:26.715Z,2.20
2023-03-15T04:46:55.411Z,3.33
2023-03-15T04:49:24.104Z,3.60
2023-03-15T04:51:52.322Z,7.60
2023-03-15T04:54:20.554Z,4.43
2023-03-15T04:56:48.886Z,2.57
2023-03-15T04:59:18.631Z,2.07
2023-03-15T05:01:46.951Z,2.60
2023-03-15T05:04:15.508Z,3.57
2023-03-15T05:06:43.948Z,6.00
2023-03-15T05:09:19.467Z,2.23
2023-03-15T05:11:47.781Z,4.00
2023-03-15T05:14:16.096Z,2.60
2023-03-15T05:16:47.909Z,8.83
2023-03-15T05:19:16.377Z,2.37
2023-03-15T05:21:44.638Z,5.60
2023-03-15T05:24:13.048Z,3.77
2023-03-15T05:26:42.625Z,6.60
2023-03-15T05:29:10.953Z,5.20
2023-03-15T05:31:39.411Z,3.83
2023-03-15T05:34:09.547Z,2.63
2023-03-15T05:36:37.846Z,3.33
2023-03-15T05:39:06.677Z,2.67
2023-03-15T05:41:35.245Z,11.97
2023-03-15T05:44:03.674Z,8.50
2023-03-15T05:46:32.086Z,7.60
2023-03-15T05:49:00.365Z,3.50
2023-03-15T05:51:30.049Z,3.10
2023-03-15T05:53:58.463Z,2.50
2023-03-15T05:56:26.878Z,5.67
2023-03-15T05:58:55.225Z,3.93
2023-03-15T06:01:23.614Z,3.80
2023-03-15T06:03:51.996Z,2.50
2023-03-15T06:06:21.273Z,3.40
2023-03-15T06:08:51.328Z,2.60
2023-03-15T06:11:19.639Z,10.50
2023-03-15T06:13:48.004Z,11.53
2023-03-15T06:16:16.339Z,2.70
2023-03-15T06:18:44.728Z,6.03
2023-03-15T06:21:13.245Z,5.33
2023-03-15T06:23:41.786Z,3.17
2023-03-15T06:26:11.588Z,4.07
2023-03-15T06:28:40.059Z,10.20
2023-03-15T06:31:09.676Z,6.30
2023-03-15T06:33:38.001Z,7.23
2023-03-15T06:36:07.121Z,5.33
2023-03-15T06:38:35.436Z,5.77
2023-03-15T06:41:05.195Z,3.30
2023-03-15T06:43:35.047Z,4.33
2023-03-15T06:46:03.496Z,2.50
2023-03-15T06:48:31.825Z,2.60
2023-03-15T06:51:00.195Z,10.70
2023-03-15T06:53:28.667Z,7.27
2023-03-15T06:55:56.981Z,5.80
2023-03-15T06:58:25.296Z,4.97
2023-03-15T07:00:54.993Z,7.13
2023-03-15T07:03:23.784Z,3.73
2023-03-15T07:05:54.173Z,9.67
2023-03-15T07:08:23.685Z,9.77
2023-03-15T07:10:52.683Z,4.13
2023-03-15T07:13:21.163Z,3.60
2023-03-15T07:15:55.625Z,6.73
2023-03-15T07:18:24.296Z,3.23
2023-03-15T07:20:58.761Z,6.50
2023-03-15T07:23:27.581Z,9.17
2023-03-15T07:25:56.337Z,6.50
2023-03-15T07:28:25.858Z,12.93
2023-03-15T07:30:59.325Z,3.10
2023-03-15T07:33:28.459Z,10.97
2023-03-15T07:35:57.180Z,4.90
2023-03-15T07:38:27.198Z,7.77
2023-03-15T07:40:55.973Z,9.00
2023-03-15T07:43:24.856Z,3.00
2023-03-15T07:45:53.176Z,8.40
2023-03-15T07:48:22.982Z,3.47
2023-03-15T07:50:53.193Z,3.80
2023-03-15T07:53:21.484Z,6.30
2023-03-15T07:55:50.196Z,8.87
2023-03-15T07:58:20.280Z,4.63
2023-03-15T08:00:49.107Z,5.93
2023-03-15T08:03:17.710Z,6.30
2023-03-15T08:05:47.741Z,5.50
2023-03-15T08:08:16.051Z,6.17
2023-03-15T08:10:45.890Z,4.13
2023-03-15T08:13:14.277Z,7.90
2023-03-15T08:15:42.697Z,12.30
2023-03-15T08:18:10.955Z,3.47
2023-03-15T08:20:39.236Z,4.80
2023-03-15T08:23:09.394Z,4.03
2023-03-15T08:25:41.027Z,3.53
2023-03-15T08:28:09.587Z,5.40
2023-03-15T08:30:37.815Z,4.87
2023-03-15T08:33:07.230Z,11.23
2023-03-15T08:35:35.826Z,5.87
2023-03-15T08:38:04.207Z,5.93
2023-03-15T08:40:33.952Z,5.83
2023-03-15T08:43:02.326Z,4.93
2023-03-15T08:45:32.987Z,10.90
2023-03-15T08:48:06.496Z,9.97
2023-03-15T08:50:34.745Z,8.20
2023-03-15T08:53:03.086Z,10.60
2023-03-15T08:55:31.521Z,9.53
2023-03-15T08:58:03.427Z,7.07
2023-03-15T09:00:33.127Z,5.53
2023-03-15T09:03:01.489Z,9.20
2023-03-15T09:05:29.908Z,7.57
2023-03-15T09:07:58.882Z,4.73
2023-03-15T09:10:27.234Z,5.67
2023-03-15T09:12:55.664Z,8.50
2023-03-15T09:15:25.360Z,5.03
2023-03-15T09:17:53.843Z,11.23
2023-03-15T09:20:28.147Z,6.80
2023-03-15T09:22:58.163Z,10.30
2023-03-15T09:25:27.337Z,11.53
2023-03-15T09:27:56.070Z,7.83
2023-03-15T09:30:26.024Z,8.37
2023-03-15T09:32:54.402Z,11.03
2023-03-15T09:35:23.164Z,7.40
2023-03-15T09:37:52.634Z,7.83
2023-03-15T09:40:26.158Z,8.07
2023-03-15T09:43:10.371Z,8.67
2023-03-15T09:46:01.266Z,9.60
2023-03-15T09:48:34.218Z,10.40
2023-03-15T09:51:06.932Z,10.27
2023-03-15T09:53:41.518Z,11.37
2023-03-15T09:56:22.156Z,12.83
2023-03-15T09:58:53.672Z,11.13
2023-03-15T10:01:29.212Z,17.20
2023-03-15T10:03:57.607Z,10.23
2023-03-15T10:06:30.516Z,16.13
2023-03-15T10:09:00.483Z,14.47
2023-03-15T10:11:35.490Z,11.40
2023-03-15T10:14:19.936Z,12.13
2023-03-15T10:16:52.101Z,11.30
2023-03-15T10:19:29.911Z,13.00
2023-03-15T10:22:03.028Z,12.83
2023-03-15T10:24:38.881Z,10.97
2023-03-15T10:27:21.002Z,12.47
2023-03-15T10:29:51.767Z,10.97
2023-03-15T10:32:27.245Z,14.90
2023-03-15T10:34:58.841Z,12.33
2023-03-15T10:37:27.585Z,12.40
2023-03-15T10:39:58.655Z,17.50
2023-03-15T10:42:31.722Z,12.83
2023-03-15T10:45:12.748Z,22.50
2023-03-15T10:47:50.534Z,12.13
2023-03-15T10:50:28.482Z,13.60
2023-03-15T10:52:58.225Z,12.13
2023-03-15T10:55:34.443Z,13.70
2023-03-15T10:58:20.534Z,16.80
2023-03-15T11:00:52.691Z,28.83
2023-03-15T11:03:24.587Z,9.23
2023-03-15T11:05:55.197Z,8.40
2023-03-15T11:08:25.354Z,9.73
2023-03-15T11:10:58.801Z,12.90
2023-03-15T11:13:29.290Z,11.77
2023-03-15T11:16:04.278Z,13.70
2023-03-15T11:18:38.685Z,15.00
2023-03-15T11:21:11.718Z,17.27
2023-03-15T11:23:44.079Z,11.03
2023-03-15T11:26:31.497Z,9.97
2023-03-15T11:29:02.601Z,11.23
2023-03-15T11:31:32.562Z,16.93
2023-03-15T11:34:07.736Z,8.50
2023-03-15T11:36:41.414Z,15.33
2023-03-15T11:39:14.993Z,12.03
2023-03-15T11:41:48.992Z,9.30
2023-03-15T11:44:27.019Z,21.43
2023-03-15T11:47:02.598Z,12.13
2023-03-15T11:49:38.121Z,13.70
2023-03-15T11:52:07.301Z,20.73
2023-03-15T11:54:35.772Z,10.97
2023-03-15T11:57:06.350Z,10.57
2023-03-15T11:59:38.281Z,11.70
2023-03-15T12:02:49.541Z,12.93
2023-03-15T12:05:45.688Z,15.90
2023-03-15T12:08:25.384Z,21.37
2023-03-15T12:10:54.564Z,14.37
2023-03-15T12:13:27.192Z,41.10
2023-03-15T12:15:56.288Z,9.97
2023-03-15T12:18:32.556Z,55.70
2023-03-15T12:21:17.124Z,19.20
2023-03-15T12:23:50.017Z,12.27
2023-03-15T12:26:33.523Z,21.80
2023-03-15T12:29:10.728Z,10.23
2023-03-15T12:31:54.991Z,10.97
2023-03-15T12:34:44.997Z,15.93
2023-03-15T12:37:18.950Z,17.17
2023-03-15T12:39:50.728Z,13.30
2023-03-15T12:43:10.581Z,29.33
2023-03-15T12:45:45.591Z,13.97
2023-03-15T12:48:24.816Z,14.90
2023-03-15T12:50:57.005Z,18.50
2023-03-15T12:53:38.904Z,16.20
2023-03-15T12:56:44.912Z,20.10
2023-03-15T12:59:26.905Z,20.30
2023-03-15T13:01:56.439Z,15.43
2023-03-15T13:04:25.372Z,24.10
2023-03-15T13:07:24.852Z,16.83
2023-03-15T13:10:22.086Z,19.63
2023-03-15T13:12:58.649Z,12.67
2023-03-15T13:15:33.239Z,10.93
2023-03-15T13:18:17.835Z,14.13
2023-03-15T13:21:01.220Z,14.13
2023-03-15T13:23:34.314Z,13.73
2023-03-15T13:26:20.091Z,16.10
2023-03-15T13:28:52.234Z,18.50
2023-03-15T13:31:23.996Z,13.17
2023-03-15T13:33:57.572Z,15.47
2023-03-15T13:36:28.367Z,11.77
2023-03-15T13:38:58.793Z,7.87
2023-03-15T13:41:28.706Z,15.37
2023-03-15T13:43:59.257Z,15.90
2023-03-15T13:46:31.895Z,11.53
2023-03-15T13:49:02.549Z,15.87
2023-03-15T13:51:34.263Z,9.07
2023-03-15T13:54:07.136Z,25.00
2023-03-15T13:56:48.940Z,18.30
2023-03-15T13:59:19.088Z,18.40
2023-03-15T14:01:48.000Z,13.47
2023-03-15T14:04:18.746Z,11.63
2023-03-15T14:06:47.934Z,11.20
2023-03-15T14:09:22.766Z,18.07
2023-03-15T14:12:03.060Z,12.07
2023-03-15T14:14:33.658Z,12.90
2023-03-15T14:17:08.863Z,12.03
2023-03-15T14:19:38.002Z,23.97
2023-03-15T14:22:16.681Z,28.20
2023-03-15T14:24:50.205Z,13.77
2023-03-15T14:27:21.167Z,25.23
2023-03-15T14:29:51.586Z,18.50
2023-03-15T14:32:29.441Z,26.40
2023-03-15T14:35:08.111Z,23.33
2023-03-15T14:37:41.154Z,19.13
2023-03-15T14:40:21.110Z,24.33
2023-03-15T14:42:51.300Z,19.57
2023-03-15T14:45:22.299Z,17.60
2023-03-15T14:47:57.220Z,16.87
2023-03-15T14:50:28.351Z,18.53
2023-03-15T14:52:59.369Z,17.93
2023-03-15T14:55:35.027Z,20.73
2023-03-15T14:58:03.997Z,18.80
2023-03-15T15:00:33.914Z,31.67
2023-03-15T15:03:02.776Z,27.00
2023-03-15T15:05:33.211Z,29.03
2023-03-15T15:08:05.367Z,19.13
2023-03-15T15:10:36.000Z,21.43
2023-03-15T15:13:07.096Z,20.50
2023-03-15T15:15:53.442Z,18.50
2023-03-15T15:18:23.864Z,24.13
2023-03-15T15:20:56.120Z,27.53
2023-03-15T15:23:28.587Z,37.83
2023-03-15T15:26:01.392Z,36.43
2023-03-15T15:28:35.923Z,25.40
2023-03-15T15:31:07.107Z,30.80
2023-03-15T15:33:35.583Z,27.60
2023-03-15T15:36:04.885Z,23.87
2023-03-15T15:38:38.960Z,24.43
2023-03-15T15:41:14.591Z,30.73
2023-03-15T15:43:43.497Z,24.77
2023-03-15T15:46:13.316Z,24.37
2023-03-15T15:48:41.983Z,24.97
2023-03-15T15:51:27.470Z,30.33
2023-03-15T15:53:57.696Z,28.13
2023-03-15T15:56:33.381Z,24.50
2023-03-15T15:59:03.178Z,24.17
2023-03-15T16:01:33.062Z,26.60
2023-03-15T16:04:02.283Z,22.07
2023-03-15T16:06:32.603Z,42.13
2023-03-15T16:09:01.329Z,26.10
2023-03-15T16:11:31.571Z,26.93
2023-03-15T16:13:59.813Z,27.57
2023-03-15T16:16:28.519Z,31.27
2023-03-15T16:18:56.805Z,26.23
2023-03-15T16:21:33.744Z,32.23
2023-03-15T16:24:07.554Z,29.27
2023-03-15T16:26:39.386Z,44.73
2023-03-15T16:29:16.854Z,42.70
2023-03-15T16:31:45.300Z,39.97
2023-03-15T16:34:14.750Z,52.43
2023-03-15T16:36:45.758Z,47.90
2023-03-15T16:39:16.820Z,46.33
2023-03-15T16:41:46.544Z,35.40
2023-03-15T16:44:17.265Z,29.77
2023-03-15T16:46:46.258Z,25.80
2023-03-15T16:49:15.628Z,32.13
2023-03-15T16:51:47.672Z,27.77
2023-03-15T16:54:27.563Z,32.13
2023-03-15T16:57:04.868Z,43.37
2023-03-15T16:59:33.158Z,32.20
2023-03-15T17:02:01.672Z,35.43
2023-03-15T17:04:30.004Z,37.03
2023-03-15T17:06:58.375Z,35.60
2023-03-15T17:09:28.737Z,34.27
2023-03-15T17:11:57.189Z,40.43
2023-03-15T17:14:32.236Z,45.03
2023-03-15T17:17:00.790Z,44.90
2023-03-15T17:19:29.180Z,39.17
2023-03-15T17:21:57.537Z,51.30
2023-03-15T17:24:25.836Z,44.13
2023-03-15T17:26:55.203Z,39.33
2023-03-15T17:29:23.462Z,56.40
2023-03-15T17:31:53.201Z,53.93
2023-03-15T17:34:22.650Z,47.00
2023-03-15T17:36:51.115Z,73.10
2023-03-15T17:39:19.368Z,98.43
2023-03-15T17:41:49.158Z,98.70
2023-03-15T17:44:17.636Z,82.27
2023-03-15T17:46:45.917Z,73.27
2023-03-15T17:49:16.385Z,76.50
2023-03-15T17:51:45.239Z,89.30
2023-03-15T17:54:18.514Z,69.23
2023-03-15T17:56:46.877Z,75.57
2023-03-15T17:59:15.352Z,63.77
2023-03-15T18:01:46.481Z,65.70
2023-03-15T18:04:17.280Z,82.37
2023-03-15T18:06:45.762Z,72.27
2023-03-15T18:09:15.424Z,75.97
2023-03-15T18:11:46.149Z,65.13
2023-03-15T18:14:15.617Z,70.20
2023-03-15T18:16:45.358Z,57.67
2023-03-15T18:19:13.776Z,57.27
2023-03-15T18:21:43.684Z,53.60
2023-03-15T18:24:13.762Z,58.20
2023-03-15T18:26:42.247Z,50.17
2023-03-15T18:29:10.490Z,45.90
2023-03-15T18:31:38.874Z,46.63
2023-03-15T18:34:07.162Z,51.40
2023-03-15T18:36:35.562Z,49.70
2023-03-15T18:39:06.595Z,53.73
2023-03-15T18:41:34.979Z,53.07
2023-03-15T18:44:03.377Z,54.93
2023-03-15T18:46:32.345Z,47.50
2023-03-15T18:49:00.945Z,45.03
2023-03-15T18:51:29.258Z,40.83
2023-03-15T18:53:57.859Z,40.27
2023-03-15T18:56:30.926Z,34.83
2023-03-15T18:58:59.188Z,32.20
2023-03-15T19:01:27.753Z,37.50
2023-03-15T19:03:56.431Z,33.33
2023-03-15T19:06:25.542Z,39.60
2023-03-15T19:08:54.877Z,34.37
2023-03-15T19:11:24.578Z,32.90
2023-03-15T19:13:54.798Z,30.10
2023-03-15T19:16:23.330Z,33.13
2023-03-15T19:18:53.062Z,31.17
2023-03-15T19:21:22.009Z,38.60
2023-03-15T19:23:50.280Z,36.23
2023-03-15T19:26:18.632Z,34.47
2023-03-15T19:28:46.865Z,39.50
2023-03-15T19:31:16.681Z,34.23
2023-03-15T19:33:45.086Z,36.67
2023-03-15T19:36:13.452Z,34.50
2023-03-15T19:38:41.850Z,44.03
2023-03-15T19:41:12.828Z,42.00
2023-03-15T19:43:43.607Z,35.50
2023-03-15T19:46:13.959Z,42.90
2023-03-15T19:48:43.991Z,47.63
2023-03-15T19:51:12.344Z,35.83
2023-03-15T19:53:41.043Z,30.93
2023-03-15T19:56:10.891Z,36.83
2023-03-15T19:58:39.143Z,39.03
2023-03-15T20:01:07.757Z,33.47
2023-03-15T20:03:36.183Z,37.13
2023-03-15T20:06:12.502Z,39.73
2023-03-15T20:08:41.157Z,29.80
2023-03-15T20:11:09.977Z,34.93
2023-03-15T20:13:38.614Z,31.27
2023-03-15T20:16:07.732Z,33.07
2023-03-15T20:18:36.261Z,33.57
2023-03-15T20:21:05.235Z,34.93
2023-03-15T20:23:35.954Z,26.53
2023-03-15T20:26:10.946Z,24.60
2023-03-15T20:28:40.149Z,24.50
2023-03-15T20:31:09.958Z,23.00
2023-03-15T20:33:38.498Z,24.03
2023-03-15T20:36:07.140Z,26.37
2023-03-15T20:38:38.245Z,25.47
2023-03-15T20:41:07.474Z,20.67
2023-03-15T20:43:36.628Z,21.97
2023-03-15T20:46:05.374Z,23.67
2023-03-15T20:48:36.194Z,19.03
2023-03-15T20:51:05.773Z,24.90
2023-03-15T20:53:35.323Z,24.53
2023-03-15T20:56:06.596Z,23.40
2023-03-15T20:58:35.099Z,28.43
2023-03-15T21:01:04.879Z,29.10
2023-03-15T21:03:34.568Z,34.97
2023-03-15T21:06:05.184Z,37.80
2023-03-15T21:08:34.757Z,34.33
2023-03-15T21:11:05.953Z,29.80
2023-03-15T21:13:35.203Z,24.83
2023-03-15T21:16:04.849Z,22.10
2023-03-15T21:18:36.099Z,23.80
2023-03-15T21:21:06.432Z,27.50
2023-03-15T21:23:36.195Z,27.60
2023-03-15T21:26:09.689Z,21.97
2023-03-15T21:28:39.399Z,22.33
2023-03-15T21:31:08.515Z,20.30
2023-03-15T21:33:37.442Z,21.17
2023-03-15T21:36:06.376Z,21.40
2023-03-15T21:38:36.398Z,25.50
2023-03-15T21:41:11.214Z,21.43
2023-03-15T21:43:40.014Z,28.33
2023-03-15T21:46:10.942Z,26.30
2023-03-15T21:48:39.786Z,23.40
2023-03-15T21:51:08.711Z,24.10
2023-03-15T21:53:38.567Z,21.57
2023-03-15T21:56:09.285Z,22.30
2023-03-15T21:58:37.586Z,20.50
2023-03-15T22:01:09.493Z,19.73
2023-03-15T22:03:39.582Z,23.60
2023-03-15T22:06:08.905Z,27.40
2023-03-15T22:08:37.314Z,27.27
2023-03-15T22:11:06.049Z,33.63
2023-03-15T22:13:37.060Z,27.70
2023-03-15T22:16:05.571Z,18.07
2023-03-15T22:18:33.913Z,22.10
2023-03-15T22:21:02.321Z,16.90
2023-03-15T22:23:30.939Z,18.47
2023-03-15T22:25:59.451Z,20.23
2023-03-15T22:28:28.093Z,23.50
2023-03-15T22:30:58.134Z,24.73
2023-03-15T22:33:26.497Z,23.33
2023-03-15T22:35:56.740Z,19.57
2023-03-15T22:38:26.320Z,24.07
2023-03-15T22:41:02.274Z,21.43
2023-03-15T22:43:30.712Z,19.83
2023-03-15T22:46:00.789Z,20.97
2023-03-15T22:48:30.375Z,17.37
2023-03-15T22:51:01.272Z,19.37
2023-03-15T22:53:31.238Z,23.00
2023-03-15T22:56:00.258Z,21.70
2023-03-15T22:58:28.695Z,24.13
2023-03-15T23:00:56.971Z,25.53
2023-03-15T23:03:27.670Z,24.97
2023-03-15T23:05:56.607Z,22.03
2023-03-15T23:08:25.663Z,25.83
2023-03-15T23:10:54.053Z,21.67
2023-03-15T23:13:22.309Z,17.57
2023-03-15T23:15:50.928Z,15.93
2023-03-15T23:18:19.198Z,21.63
2023-03-15T23:20:49.282Z,30.83
2023-03-15T23:23:17.900Z,21.70
2023-03-15T23:25:47.108Z,26.63
2023-03-15T23:28:23.027Z,17.70
2023-03-15T23:30:51.454Z,20.30
2023-03-15T23:33:19.838Z,21.20
2023-03-15T23:35:49.837Z,17.63
2023-03-15T23:38:18.232Z,22.83
2023-03-15T23:40:46.508Z,41.93
2023-03-15T23:43:14.860Z,30.57
2023-03-15T23:45:43.563Z,28.67
2023-03-15T23:48:12.619Z,36.57
2023-03-15T23:50:44.286Z,27.87
2023-03-15T23:53:14.103Z,23.43
2023-03-15T23:55:42.409Z,31.07
2023-03-15T23:58:10.952Z,21.97
